100LL.CA
Aviation Fuel Pricing for Canadians
Please upgrade your browser - Tested with IE9, FireFox, Chrome, Safari

Fuel Prices Airport Info Airport List METAR / TAF Kneeboard RSS

Reference Airport: Princeton, BC
N 49 28 05   W 120 30 41

CYDC Princeton, BC
WEATHER
METARCYDC 211900Z VRB03KT 25SM FEW260 20/07 A3016 RMK CI2 CONTRAILS SLP205 DENSITY ALT 3200FT
REF N 49 28 05  W 120 30 41    Adj N    18E
UTC-8(7)    Elev 2302    A5004 LO2 HI3 CAP RCAP
OPR Town 250-295-3135/293-6279
Reg
PFA-1 C-2,3,4,5
FLT PLN NOTAM FILE CYDC
FIC Kamloops 866-WXBRIEF (Toll free within Canada) or 866-541-4101 (Toll free within Canada & USA)
WXMETAR 15-01Z (DT 13-01Z) O/T LWIS Tml Advsy fcst incl in VFR rte fcst (dur DT only), issue times: 14, 17, 20, 23Z.
SERVICES
FUEL100LL, JA
PRICES100LL public: 1.910; current as of 2015-04-05.
Note: Two courtesy cars available, plus free WiFi
S5
RWY DATARwy 04(035)/22(215) 3932x75 asphalt R/L
RCROpr Ltd win maint. PLR/PCN
COMM
RCOPacific rdo 125.85 (FISE) 126.7 (bcst)
ATFtfc 123.2 5NM 5300 ASL
PALVancouver Ctr 135.0 351.3
NAV
NDBDC 326 (M) N49 28 10 W120 31 00
VORDMEYDC 113.9 Ch 86 N49 22 54 W120 22 26 (5335')
PRORgt hand circuits Rwy 04.
CAUTION5 ditch 300 W Thld 04 Wildlife adj to rwy dur sum months.
Effective 0901Z 22 June 2017 to 0901Z 17 August 2017